createdAt,value
2019-03-29T00:00:18.720Z,47.50
2019-03-29T00:01:18.696Z,47.50
2019-03-29T00:02:18.685Z,47.50
2019-03-29T00:03:18.700Z,47.50
2019-03-29T00:04:18.661Z,47.50
2019-03-29T00:05:18.939Z,47.50
2019-03-29T00:06:18.638Z,47.50
2019-03-29T00:07:18.633Z,47.60
2019-03-29T00:08:18.668Z,47.50
2019-03-29T00:09:18.612Z,47.50
2019-03-29T00:10:18.600Z,47.60
2019-03-29T00:11:18.589Z,47.60
2019-03-29T00:12:18.579Z,47.60
2019-03-29T00:13:18.569Z,47.60
2019-03-29T00:14:18.587Z,47.60
2019-03-29T00:15:18.541Z,47.60
2019-03-29T00:16:18.530Z,47.60
2019-03-29T00:17:18.534Z,47.60
2019-03-29T00:18:18.538Z,47.60
2019-03-29T00:19:18.505Z,47.60
2019-03-29T00:20:19.411Z,47.60
2019-03-29T00:21:18.479Z,47.60
2019-03-29T00:22:18.474Z,47.60
2019-03-29T00:23:18.502Z,47.60
2019-03-29T00:24:18.448Z,47.60
2019-03-29T00:25:18.436Z,47.70
2019-03-29T00:26:18.426Z,47.70
2019-03-29T00:27:19.087Z,47.60
2019-03-29T00:28:18.410Z,47.60
2019-03-29T00:29:18.434Z,47.60
2019-03-29T00:30:18.385Z,47.60
2019-03-29T00:31:18.375Z,47.70
2019-03-29T00:32:18.359Z,47.70
2019-03-29T00:33:18.369Z,47.60
2019-03-29T00:34:18.341Z,47.60
2019-03-29T00:35:18.361Z,47.70
2019-03-29T00:36:18.322Z,47.70
2019-03-29T00:37:18.335Z,47.60
2019-03-29T00:38:18.300Z,47.60
2019-03-29T00:39:18.290Z,47.60
2019-03-29T00:40:18.277Z,47.60
2019-03-29T00:41:18.266Z,47.60
2019-03-29T00:42:18.306Z,47.60
2019-03-29T00:43:18.244Z,47.60
2019-03-29T00:44:18.232Z,47.60
2019-03-29T00:45:19.016Z,47.60
2019-03-29T00:46:18.221Z,47.60
2019-03-29T00:47:18.219Z,47.60
2019-03-29T00:48:18.225Z,47.60
2019-03-29T00:49:18.181Z,47.60
2019-03-29T00:50:18.166Z,47.60
2019-03-29T00:51:18.159Z,47.60
2019-03-29T00:52:18.150Z,47.60
2019-03-29T00:53:18.201Z,47.60
2019-03-29T00:54:18.125Z,47.60
2019-03-29T00:55:18.117Z,47.50
2019-03-29T00:56:18.117Z,47.50
2019-03-29T00:57:18.098Z,47.50
2019-03-29T00:58:18.079Z,47.50
2019-03-29T00:59:18.100Z,47.50
2019-03-29T01:00:18.065Z,47.50
2019-03-29T01:01:18.053Z,47.50
2019-03-29T01:02:18.939Z,47.50
2019-03-29T01:03:18.270Z,47.50
2019-03-29T01:04:18.019Z,47.39
2019-03-29T01:05:18.007Z,47.39
2019-03-29T01:06:18.004Z,47.39
2019-03-29T01:07:17.991Z,47.39
2019-03-29T01:08:17.978Z,47.39
2019-03-29T01:09:18.007Z,47.39
2019-03-29T01:10:17.982Z,47.39
2019-03-29T01:11:17.950Z,47.39
2019-03-29T01:12:17.934Z,47.39
2019-03-29T01:13:17.919Z,47.39
2019-03-29T01:14:19.667Z,47.39
2019-03-29T01:15:17.936Z,47.39
2019-03-29T01:16:17.894Z,47.39
2019-03-29T01:17:17.881Z,47.39
2019-03-29T01:18:17.872Z,47.39
2019-03-29T01:19:17.861Z,47.39
2019-03-29T01:20:17.851Z,47.39
2019-03-29T01:21:17.869Z,47.39
2019-03-29T01:22:17.828Z,47.30
2019-03-29T01:23:17.814Z,47.30
2019-03-29T01:24:17.805Z,47.30
2019-03-29T01:25:17.796Z,47.39
2019-03-29T01:26:17.783Z,47.30
2019-03-29T01:27:19.125Z,47.30
2019-03-29T01:28:17.762Z,47.30
2019-03-29T01:29:17.774Z,47.19
2019-03-29T01:30:17.743Z,47.30
2019-03-29T01:31:17.735Z,47.30
2019-03-29T01:32:17.714Z,47.19
2019-03-29T01:33:17.730Z,47.30
2019-03-29T01:34:17.699Z,47.30
2019-03-29T01:35:17.686Z,47.30
2019-03-29T01:36:17.675Z,47.30
2019-03-29T01:37:17.702Z,47.30
2019-03-29T01:38:22.209Z,47.30
2019-03-29T01:39:18.638Z,47.30
2019-03-29T01:40:17.633Z,47.30
2019-03-29T01:41:17.621Z,47.30
2019-03-29T01:42:18.880Z,47.30
2019-03-29T01:43:17.632Z,47.30
2019-03-29T01:44:17.592Z,47.30
2019-03-29T01:45:17.577Z,47.30
2019-03-29T01:46:17.567Z,47.30
2019-03-29T01:47:17.560Z,47.30
2019-03-29T01:48:17.549Z,47.30
2019-03-29T01:49:17.569Z,47.30
2019-03-29T01:50:17.524Z,47.30
2019-03-29T01:51:17.517Z,47.30
2019-03-29T01:52:17.517Z,47.30
2019-03-29T01:53:17.490Z,47.30
2019-03-29T01:54:17.481Z,47.30
2019-03-29T01:55:17.494Z,47.30
2019-03-29T01:56:17.462Z,47.30
2019-03-29T01:57:17.449Z,47.30
2019-03-29T01:58:17.440Z,47.30
2019-03-29T01:59:17.430Z,47.32
2019-03-29T02:00:17.444Z,47.30
2019-03-29T02:01:17.406Z,47.30
2019-03-29T02:02:17.398Z,47.30
2019-03-29T02:03:17.387Z,47.30
2019-03-29T02:04:17.382Z,47.30
2019-03-29T02:05:17.365Z,47.30
2019-03-29T02:06:17.463Z,47.30
2019-03-29T02:07:17.350Z,47.30
2019-03-29T02:08:17.332Z,47.30
2019-03-29T02:09:17.330Z,47.30
2019-03-29T02:10:17.346Z,47.30
2019-03-29T02:11:17.301Z,47.19
2019-03-29T02:12:17.288Z,47.30
2019-03-29T02:13:17.276Z,47.30
2019-03-29T02:14:18.030Z,47.19
2019-03-29T02:15:17.269Z,47.19
2019-03-29T02:16:17.264Z,47.30
2019-03-29T02:17:17.239Z,47.30
2019-03-29T02:18:17.221Z,47.19
2019-03-29T02:19:17.228Z,47.19
2019-03-29T02:20:17.236Z,47.19
2019-03-29T02:21:17.260Z,47.19
2019-03-29T02:22:17.186Z,47.19
2019-03-29T02:23:17.172Z,47.19
2019-03-29T02:24:17.156Z,47.19
2019-03-29T02:25:17.168Z,47.19
2019-03-29T02:26:17.168Z,47.19
2019-03-29T02:27:17.127Z,47.19
2019-03-29T02:28:17.115Z,47.19
2019-03-29T02:29:17.108Z,47.19
2019-03-29T02:30:17.096Z,47.19
2019-03-29T02:31:17.084Z,47.19
2019-03-29T02:32:17.094Z,47.19
2019-03-29T02:33:17.063Z,47.19
2019-03-29T02:34:17.051Z,47.19
2019-03-29T02:35:17.039Z,47.19
2019-03-29T02:36:17.027Z,47.19
2019-03-29T02:37:17.045Z,47.19
2019-03-29T02:38:17.242Z,47.19
2019-03-29T02:39:17.010Z,47.19
2019-03-29T02:40:16.994Z,47.19
2019-03-29T02:41:19.015Z,47.19
2019-03-29T02:42:16.963Z,47.09
2019-03-29T02:43:16.956Z,47.09
2019-03-29T02:44:16.980Z,47.09
2019-03-29T02:45:16.950Z,47.09
2019-03-29T02:46:16.929Z,47.19
2019-03-29T02:47:16.917Z,47.09
2019-03-29T02:48:17.376Z,47.09
2019-03-29T02:49:16.891Z,47.09
2019-03-29T02:50:16.904Z,47.09
2019-03-29T02:51:16.872Z,47.09
2019-03-29T02:52:16.863Z,47.09
2019-03-29T02:53:16.848Z,47.00
2019-03-29T02:54:16.841Z,47.00
2019-03-29T02:55:16.864Z,47.00
2019-03-29T02:56:16.812Z,47.00
2019-03-29T02:57:16.805Z,47.00
2019-03-29T02:58:16.795Z,47.00
2019-03-29T02:59:16.782Z,47.00
2019-03-29T03:00:16.772Z,47.00
2019-03-29T03:01:16.802Z,46.89
2019-03-29T03:02:16.762Z,46.89
2019-03-29T03:03:16.746Z,46.89
2019-03-29T03:04:16.737Z,46.89
2019-03-29T03:05:16.719Z,46.89
2019-03-29T03:06:16.710Z,46.89
2019-03-29T03:07:16.715Z,46.89
2019-03-29T03:08:16.683Z,46.89
2019-03-29T03:09:16.701Z,46.89
2019-03-29T03:10:16.667Z,46.89
2019-03-29T03:11:16.660Z,47.00
2019-03-29T03:12:16.642Z,46.89
2019-03-29T03:13:16.634Z,46.89
2019-03-29T03:14:16.621Z,47.00
2019-03-29T03:15:16.632Z,46.89
2019-03-29T03:16:16.598Z,47.00
2019-03-29T03:17:16.592Z,47.00
2019-03-29T03:18:16.587Z,47.00
2019-03-29T03:19:16.571Z,47.00
2019-03-29T03:20:16.580Z,47.00
2019-03-29T03:21:16.566Z,47.00
2019-03-29T03:22:16.571Z,47.00
2019-03-29T03:23:16.531Z,47.00
2019-03-29T03:24:16.514Z,47.00
2019-03-29T03:25:16.505Z,47.00
2019-03-29T03:26:16.498Z,47.00
2019-03-29T03:27:16.512Z,47.00
2019-03-29T03:28:16.476Z,47.00
2019-03-29T03:29:16.485Z,47.00
2019-03-29T03:30:16.453Z,47.00
2019-03-29T03:31:16.448Z,47.00
2019-03-29T03:32:16.649Z,47.00
2019-03-29T03:33:16.422Z,47.00
2019-03-29T03:34:16.425Z,47.00
2019-03-29T03:35:16.410Z,47.00
2019-03-29T03:36:16.384Z,47.00
2019-03-29T03:37:16.399Z,47.00
2019-03-29T03:38:16.366Z,47.00
2019-03-29T03:39:30.532Z,47.00
2019-03-29T03:40:17.343Z,47.00
2019-03-29T03:41:16.335Z,47.00
2019-03-29T03:42:16.319Z,47.00
2019-03-29T03:43:16.345Z,47.00
2019-03-29T03:44:16.313Z,47.00
2019-03-29T03:45:16.285Z,46.89
2019-03-29T03:46:16.288Z,47.00
2019-03-29T03:47:16.268Z,46.89
2019-03-29T03:48:16.257Z,46.89
2019-03-29T03:49:16.270Z,46.89
2019-03-29T03:50:16.239Z,46.89
2019-03-29T03:51:16.225Z,46.89
2019-03-29T03:52:16.215Z,46.89
2019-03-29T03:53:16.205Z,46.89
2019-03-29T03:54:16.199Z,46.89
2019-03-29T03:55:16.213Z,46.80
2019-03-29T03:56:16.168Z,46.80
2019-03-29T03:57:16.192Z,46.80
2019-03-29T03:58:16.160Z,46.80
2019-03-29T03:59:16.135Z,46.80
2019-03-29T04:00:16.136Z,46.80
2019-03-29T04:01:16.346Z,46.80
2019-03-29T04:02:16.123Z,46.80
2019-03-29T04:03:16.098Z,46.80
2019-03-29T04:04:16.101Z,46.80
2019-03-29T04:05:16.075Z,46.80
2019-03-29T04:06:16.069Z,46.80
2019-03-29T04:07:16.086Z,46.80
2019-03-29T04:08:16.053Z,46.80
2019-03-29T04:09:16.030Z,46.80
2019-03-29T04:10:16.018Z,46.80
2019-03-29T04:11:16.041Z,46.80
2019-03-29T04:12:16.000Z,46.80
2019-03-29T04:13:15.984Z,46.80
2019-03-29T04:14:15.978Z,46.80
2019-03-29T04:15:15.965Z,46.80
2019-03-29T04:16:15.951Z,46.80
2019-03-29T04:17:15.975Z,46.80
2019-03-29T04:18:16.610Z,46.80
2019-03-29T04:19:15.922Z,46.80
2019-03-29T04:20:15.916Z,46.80
2019-03-29T04:21:15.922Z,46.80
2019-03-29T04:22:15.888Z,46.80
2019-03-29T04:23:15.884Z,46.80
2019-03-29T04:24:15.909Z,46.69
2019-03-29T04:25:15.864Z,46.72
2019-03-29T04:26:16.056Z,46.69
2019-03-29T04:27:15.837Z,46.69
2019-03-29T04:28:15.826Z,46.69
2019-03-29T04:29:15.813Z,46.69
2019-03-29T04:30:15.823Z,46.59
2019-03-29T04:31:15.791Z,46.69
2019-03-29T04:32:15.800Z,46.69
2019-03-29T04:33:15.773Z,46.69
2019-03-29T04:34:15.765Z,46.59
2019-03-29T04:35:15.754Z,46.59
2019-03-29T04:36:15.742Z,46.59
2019-03-29T04:37:15.766Z,46.59
2019-03-29T04:38:15.720Z,46.61
2019-03-29T04:39:15.710Z,46.69
2019-03-29T04:40:15.721Z,46.69
2019-03-29T04:41:15.683Z,46.69
2019-03-29T04:42:15.678Z,46.69
2019-03-29T04:43:15.887Z,46.69
2019-03-29T04:44:15.658Z,46.69
2019-03-29T04:45:15.643Z,46.69
2019-03-29T04:46:15.632Z,46.61
2019-03-29T04:47:15.619Z,46.61
2019-03-29T04:48:15.620Z,46.69
2019-03-29T04:49:15.634Z,46.61
2019-03-29T04:50:15.593Z,46.61
2019-03-29T04:51:15.583Z,46.72
2019-03-29T04:52:15.566Z,46.72
2019-03-29T04:53:15.566Z,46.61
2019-03-29T04:54:15.549Z,46.69
2019-03-29T04:55:15.554Z,46.61
2019-03-29T04:56:15.527Z,46.61
2019-03-29T04:57:15.538Z,46.72
2019-03-29T04:58:15.503Z,46.72
2019-03-29T04:59:15.497Z,46.59
2019-03-29T05:00:15.482Z,46.61
2019-03-29T05:01:17.394Z,46.61
2019-03-29T05:02:15.466Z,46.61
2019-03-29T05:03:15.489Z,46.61
2019-03-29T05:04:15.465Z,46.61
2019-03-29T05:05:15.431Z,46.61
2019-03-29T05:06:15.421Z,46.61
2019-03-29T05:07:15.403Z,46.61
2019-03-29T05:08:15.417Z,46.61
2019-03-29T05:09:15.402Z,46.61
2019-03-29T05:10:21.354Z,46.61
2019-03-29T05:11:16.374Z,46.51
2019-03-29T05:12:15.350Z,46.51
2019-03-29T05:13:15.378Z,46.51
2019-03-29T05:14:15.329Z,46.61
2019-03-29T05:15:15.319Z,46.51
2019-03-29T05:16:15.305Z,46.51
2019-03-29T05:17:15.307Z,46.51
2019-03-29T05:18:15.287Z,46.51
2019-03-29T05:19:15.308Z,46.51
2019-03-29T05:20:15.277Z,46.51
2019-03-29T05:21:15.261Z,46.51
2019-03-29T05:22:15.241Z,46.51
2019-03-29T05:23:15.245Z,46.51
2019-03-29T05:24:15.221Z,46.51
2019-03-29T05:25:15.237Z,46.51
2019-03-29T05:26:15.410Z,46.51
2019-03-29T05:27:15.192Z,46.51
2019-03-29T05:28:15.178Z,46.51
2019-03-29T05:29:15.176Z,46.51
2019-03-29T05:30:15.156Z,46.41
2019-03-29T05:31:15.148Z,46.49
2019-03-29T05:32:15.161Z,46.41
2019-03-29T05:33:15.129Z,46.51
2019-03-29T05:34:15.118Z,46.39
2019-03-29T05:35:15.107Z,46.41
2019-03-29T05:36:15.118Z,46.41
2019-03-29T05:37:15.083Z,46.41
2019-03-29T05:38:15.113Z,46.41
2019-03-29T05:39:15.058Z,46.41
2019-03-29T05:40:15.054Z,46.39
2019-03-29T05:41:15.040Z,46.39
2019-03-29T05:42:15.032Z,46.39
2019-03-29T05:43:15.019Z,46.49
2019-03-29T05:44:15.027Z,46.49
2019-03-29T05:45:14.998Z,46.39
2019-03-29T05:46:14.985Z,46.39
2019-03-29T05:47:14.976Z,46.49
2019-03-29T05:48:14.962Z,46.39
2019-03-29T05:49:14.981Z,46.39
2019-03-29T05:50:14.944Z,46.39
2019-03-29T05:51:14.930Z,46.39
2019-03-29T05:52:14.920Z,46.39
2019-03-29T05:53:14.912Z,46.39
2019-03-29T05:54:14.920Z,46.39
2019-03-29T05:55:14.885Z,46.39
2019-03-29T05:56:14.878Z,46.39
2019-03-29T05:57:14.865Z,46.39
2019-03-29T05:58:14.854Z,46.39
2019-03-29T05:59:15.069Z,46.39
2019-03-29T06:00:14.835Z,46.29
2019-03-29T06:01:14.821Z,46.29
2019-03-29T06:02:14.812Z,46.29
2019-03-29T06:03:14.799Z,46.29
2019-03-29T06:04:14.795Z,46.29
2019-03-29T06:05:14.813Z,46.29
2019-03-29T06:06:14.771Z,46.29
2019-03-29T06:07:14.763Z,46.19
2019-03-29T06:08:14.750Z,46.19
2019-03-29T06:09:14.742Z,46.19
2019-03-29T06:10:14.731Z,46.19
2019-03-29T06:11:14.738Z,46.19
2019-03-29T06:12:14.709Z,46.19
2019-03-29T06:13:14.695Z,46.09
2019-03-29T06:14:14.688Z,46.19
2019-03-29T06:15:14.672Z,46.09
2019-03-29T06:16:14.697Z,46.19
2019-03-29T06:17:14.652Z,46.09
2019-03-29T06:18:14.645Z,46.09
2019-03-29T06:19:14.634Z,46.09
2019-03-29T06:20:14.618Z,46.09
2019-03-29T06:21:14.606Z,46.09
2019-03-29T06:22:14.643Z,46.09
2019-03-29T06:23:14.607Z,46.09
2019-03-29T06:24:14.576Z,46.09
2019-03-29T06:25:14.587Z,46.09
2019-03-29T06:26:14.556Z,46.09
2019-03-29T06:27:14.548Z,46.09
2019-03-29T06:28:14.533Z,46.09
2019-03-29T06:29:14.541Z,46.09
2019-03-29T06:30:14.514Z,46.09
2019-03-29T06:31:14.506Z,46.09
2019-03-29T06:32:14.496Z,46.09
2019-03-29T06:33:14.476Z,46.09
2019-03-29T06:34:14.493Z,46.09
2019-03-29T06:35:14.461Z,46.09
2019-03-29T06:36:14.446Z,46.09
2019-03-29T06:37:14.469Z,46.09
2019-03-29T06:38:14.431Z,46.09
2019-03-29T06:39:14.415Z,46.09
2019-03-29T06:40:14.430Z,46.09
2019-03-29T06:41:14.398Z,46.09
2019-03-29T06:42:14.383Z,46.19
2019-03-29T06:43:14.373Z,46.19
2019-03-29T06:44:14.367Z,46.29
2019-03-29T06:45:14.353Z,46.19
2019-03-29T06:46:14.360Z,46.19
2019-03-29T06:47:14.328Z,46.19
2019-03-29T06:48:14.319Z,46.19
2019-03-29T06:49:14.309Z,46.29
2019-03-29T06:50:14.378Z,46.29
2019-03-29T06:51:14.291Z,46.19
2019-03-29T06:52:14.299Z,46.29
2019-03-29T06:53:14.271Z,46.29
2019-03-29T06:54:14.255Z,46.29
2019-03-29T06:55:14.266Z,46.29
2019-03-29T06:56:14.234Z,46.29
2019-03-29T06:57:14.259Z,46.29
2019-03-29T06:58:14.286Z,46.29
2019-03-29T06:59:14.197Z,46.29
2019-03-29T07:00:14.226Z,46.29
2019-03-29T07:01:14.182Z,46.39
2019-03-29T07:02:14.167Z,46.39
2019-03-29T07:03:14.178Z,46.39
2019-03-29T07:04:14.152Z,46.39
2019-03-29T07:05:14.135Z,46.39
2019-03-29T07:06:14.125Z,46.39
2019-03-29T07:07:14.116Z,46.39
2019-03-29T07:08:14.140Z,46.39
2019-03-29T07:09:14.089Z,46.39
2019-03-29T07:10:14.086Z,46.39
2019-03-29T07:11:17.821Z,46.39
2019-03-29T07:12:14.057Z,46.39
2019-03-29T07:13:14.051Z,46.39
2019-03-29T07:14:14.061Z,46.39
2019-03-29T07:15:14.049Z,46.49
2019-03-29T07:16:14.014Z,46.49
2019-03-29T07:17:14.010Z,46.49
2019-03-29T07:18:14.019Z,46.39
2019-03-29T07:19:13.986Z,46.39
2019-03-29T07:20:13.995Z,46.39
2019-03-29T07:21:21.409Z,46.39
2019-03-29T07:22:14.952Z,46.49
2019-03-29T07:23:13.943Z,46.39
2019-03-29T07:24:13.936Z,46.49
2019-03-29T07:25:13.920Z,46.49
2019-03-29T07:26:13.925Z,46.49
2019-03-29T07:27:14.015Z,46.49
2019-03-29T07:28:13.891Z,46.49
2019-03-29T07:29:13.878Z,46.49
2019-03-29T07:30:13.870Z,46.49
2019-03-29T07:31:13.863Z,46.49
2019-03-29T07:32:13.861Z,46.59
2019-03-29T07:33:13.857Z,46.59
2019-03-29T07:34:13.826Z,46.59
2019-03-29T07:35:13.814Z,46.59
2019-03-29T07:36:13.802Z,46.59
2019-03-29T07:37:13.795Z,46.59
2019-03-29T07:38:13.811Z,46.59
2019-03-29T07:39:13.771Z,46.59
2019-03-29T07:40:13.761Z,46.59
2019-03-29T07:41:13.753Z,46.59
2019-03-29T07:42:13.742Z,46.59
2019-03-29T07:43:13.725Z,46.69
2019-03-29T07:44:13.743Z,46.69
2019-03-29T07:45:13.707Z,46.69
2019-03-29T07:46:13.701Z,46.69
2019-03-29T07:47:13.689Z,46.69
2019-03-29T07:48:13.670Z,46.69
2019-03-29T07:49:13.668Z,46.69
2019-03-29T07:50:13.668Z,46.80
2019-03-29T07:51:13.664Z,46.80
2019-03-29T07:52:13.634Z,46.80
2019-03-29T07:53:13.645Z,46.80
2019-03-29T07:54:13.618Z,46.80
2019-03-29T07:55:13.607Z,46.80
2019-03-29T07:56:13.591Z,46.80
2019-03-29T07:57:13.581Z,46.80
2019-03-29T07:58:13.568Z,46.89
2019-03-29T07:59:13.577Z,46.89
2019-03-29T08:00:13.552Z,46.89
2019-03-29T08:01:13.538Z,46.89
2019-03-29T08:02:13.578Z,46.89
2019-03-29T08:03:13.543Z,46.89
2019-03-29T08:04:13.524Z,46.89
2019-03-29T08:05:13.488Z,46.89
2019-03-29T08:06:13.525Z,47.09
2019-03-29T08:07:26.311Z,47.30
2019-03-29T08:08:23.958Z,47.30
2019-03-29T08:09:22.096Z,47.30
2019-03-29T08:10:24.900Z,47.30
2019-03-29T08:11:25.475Z,47.30
2019-03-29T08:12:14.470Z,47.19
2019-03-29T08:13:13.418Z,47.19
2019-03-29T08:14:15.071Z,47.19
2019-03-29T08:15:13.384Z,47.09
2019-03-29T08:16:13.397Z,47.09
2019-03-29T08:17:13.367Z,47.09
2019-03-29T08:18:13.354Z,47.09
2019-03-29T08:19:13.343Z,47.09
2019-03-29T08:20:38.114Z,47.09
2019-03-29T08:21:14.321Z,47.09
2019-03-29T08:22:13.311Z,47.09
2019-03-29T08:23:13.298Z,47.09
2019-03-29T08:24:13.293Z,47.09
2019-03-29T08:25:13.273Z,47.09
2019-03-29T08:26:13.294Z,47.09
2019-03-29T08:27:13.261Z,47.19
2019-03-29T08:28:13.248Z,47.19
2019-03-29T08:29:13.238Z,47.19
2019-03-29T08:30:13.227Z,47.19
2019-03-29T08:31:13.217Z,47.19
2019-03-29T08:32:13.237Z,47.17
2019-03-29T08:33:13.194Z,47.17
2019-03-29T08:34:13.176Z,47.17
2019-03-29T08:35:13.168Z,47.17
2019-03-29T08:36:13.160Z,47.27
2019-03-29T08:37:13.166Z,47.27
2019-03-29T08:38:13.167Z,47.17
2019-03-29T08:39:26.972Z,47.17
2019-03-29T08:40:14.112Z,47.17
2019-03-29T08:41:13.104Z,47.17
2019-03-29T08:42:13.094Z,47.17
2019-03-29T08:43:13.083Z,47.27
2019-03-29T08:44:13.098Z,47.27
2019-03-29T08:45:13.065Z,47.17
2019-03-29T08:46:13.073Z,47.17
2019-03-29T08:47:13.044Z,47.17
2019-03-29T08:48:13.033Z,47.17
2019-03-29T08:49:16.417Z,47.17
2019-03-29T08:50:13.011Z,47.07
2019-03-29T08:51:13.230Z,47.07
2019-03-29T08:52:12.989Z,47.07
2019-03-29T08:53:12.975Z,47.07
2019-03-29T08:54:12.970Z,47.17
2019-03-29T08:55:12.959Z,47.27
2019-03-29T08:56:12.941Z,47.27
2019-03-29T08:57:13.001Z,47.27
2019-03-29T08:58:12.924Z,47.27
2019-03-29T08:59:12.908Z,47.27
2019-03-29T09:00:15.788Z,47.27
2019-03-29T09:01:12.886Z,47.27
2019-03-29T09:02:12.901Z,47.17
2019-03-29T09:03:12.872Z,47.17
2019-03-29T09:04:12.854Z,47.27
2019-03-29T09:05:12.846Z,47.27
2019-03-29T09:06:12.842Z,47.27
2019-03-29T09:07:13.052Z,47.27
2019-03-29T09:08:12.811Z,47.27
2019-03-29T09:09:12.805Z,47.27
2019-03-29T09:10:12.814Z,47.27
2019-03-29T09:11:12.787Z,47.27
2019-03-29T09:12:14.780Z,47.27
2019-03-29T09:13:12.784Z,47.38
2019-03-29T09:14:12.747Z,47.27
2019-03-29T09:15:12.737Z,47.27
2019-03-29T09:16:12.732Z,47.17
2019-03-29T09:17:12.721Z,47.17
2019-03-29T09:18:12.709Z,47.17
2019-03-29T09:19:12.722Z,47.17
2019-03-29T09:20:12.689Z,47.27
2019-03-29T09:21:12.677Z,47.25
2019-03-29T09:22:12.665Z,47.27
2019-03-29T09:23:12.665Z,47.17
2019-03-29T09:24:21.856Z,47.17
2019-03-29T09:25:13.627Z,47.15
2019-03-29T09:26:12.620Z,47.17
2019-03-29T09:27:12.611Z,47.17
2019-03-29T09:28:12.600Z,47.17
2019-03-29T09:29:12.594Z,47.17
2019-03-29T09:30:12.788Z,47.17
2019-03-29T09:31:12.573Z,47.17
2019-03-29T09:32:12.559Z,47.17
2019-03-29T09:33:12.560Z,47.17
2019-03-29T09:34:12.537Z,47.27
2019-03-29T09:35:12.528Z,47.27
2019-03-29T09:36:12.559Z,47.27
2019-03-29T09:37:12.506Z,47.27
2019-03-29T09:38:12.488Z,47.38
2019-03-29T09:39:12.482Z,47.38
2019-03-29T09:40:14.153Z,47.38
2019-03-29T09:41:12.464Z,47.38
2019-03-29T09:42:12.471Z,47.38
2019-03-29T09:43:12.446Z,47.38
2019-03-29T09:44:12.427Z,47.38
2019-03-29T09:45:12.419Z,47.38
2019-03-29T09:46:12.410Z,47.38
2019-03-29T09:47:12.397Z,47.38
2019-03-29T09:48:12.409Z,47.38
2019-03-29T09:49:12.398Z,47.38
2019-03-29T09:50:12.364Z,47.38
2019-03-29T09:51:12.352Z,47.38
2019-03-29T09:52:12.341Z,47.38
2019-03-29T09:53:12.331Z,47.47
2019-03-29T09:54:12.338Z,47.47
2019-03-29T09:55:12.305Z,47.47
2019-03-29T09:56:12.304Z,47.47
2019-03-29T09:57:15.493Z,47.47
2019-03-29T09:58:12.273Z,47.38
2019-03-29T09:59:12.288Z,47.38
2019-03-29T10:00:21.051Z,47.38
2019-03-29T10:01:13.310Z,47.38
2019-03-29T10:02:12.236Z,47.38
2019-03-29T10:03:12.220Z,47.38
2019-03-29T10:04:12.212Z,47.38
2019-03-29T10:05:12.202Z,47.38
2019-03-29T10:06:15.119Z,47.38
2019-03-29T10:07:12.203Z,47.38
2019-03-29T10:08:12.172Z,47.38
2019-03-29T10:09:12.158Z,47.38
2019-03-29T10:10:12.151Z,47.38
2019-03-29T10:11:12.136Z,47.27
2019-03-29T10:12:12.131Z,47.27
2019-03-29T10:13:12.142Z,47.27
2019-03-29T10:14:12.103Z,47.27
2019-03-29T10:15:12.097Z,47.27
2019-03-29T10:16:12.106Z,47.27
2019-03-29T10:17:12.068Z,47.27
2019-03-29T10:18:12.064Z,47.27
2019-03-29T10:19:12.075Z,47.27
2019-03-29T10:20:12.041Z,47.27
2019-03-29T10:21:12.029Z,47.27
2019-03-29T10:22:12.022Z,47.27
2019-03-29T10:23:12.003Z,47.27
2019-03-29T10:24:12.000Z,47.17
2019-03-29T10:25:19.227Z,47.17
2019-03-29T10:26:12.996Z,47.17
2019-03-29T10:27:11.964Z,47.17
2019-03-29T10:28:11.959Z,47.17
2019-03-29T10:29:11.955Z,47.17
2019-03-29T10:30:11.931Z,47.27
2019-03-29T10:31:11.924Z,47.17
2019-03-29T10:32:11.933Z,47.17
2019-03-29T10:33:11.898Z,47.17
2019-03-29T10:34:11.888Z,47.17
2019-03-29T10:35:11.886Z,47.17
2019-03-29T10:36:12.070Z,47.17
2019-03-29T10:37:11.860Z,47.17
2019-03-29T10:38:11.849Z,47.17
2019-03-29T10:39:11.834Z,47.17
2019-03-29T10:40:11.821Z,47.17
2019-03-29T10:41:11.814Z,47.07
2019-03-29T10:42:11.840Z,47.17
2019-03-29T10:43:11.791Z,47.17
2019-03-29T10:44:11.786Z,47.17
2019-03-29T10:45:11.770Z,47.17
2019-03-29T10:46:11.756Z,47.27
2019-03-29T10:47:11.787Z,47.27
2019-03-29T10:48:11.737Z,47.27
2019-03-29T10:49:11.723Z,47.38
2019-03-29T10:50:11.720Z,47.38
2019-03-29T10:51:11.702Z,47.38
2019-03-29T10:52:11.702Z,47.27
2019-03-29T10:53:11.707Z,47.27
2019-03-29T10:54:11.670Z,47.25
2019-03-29T10:55:11.663Z,47.27
2019-03-29T10:56:11.672Z,47.27
2019-03-29T10:57:11.647Z,47.27
2019-03-29T10:58:11.633Z,47.27
2019-03-29T10:59:26.294Z,47.25
2019-03-29T11:00:12.619Z,47.35
2019-03-29T11:01:11.597Z,47.25
2019-03-29T11:02:11.585Z,47.25
2019-03-29T11:03:11.579Z,47.25
2019-03-29T11:04:11.562Z,47.25
2019-03-29T11:05:11.774Z,47.35
2019-03-29T11:06:11.550Z,47.35
2019-03-29T11:07:11.539Z,47.35
2019-03-29T11:08:12.319Z,47.35
2019-03-29T11:09:11.510Z,47.35
2019-03-29T11:10:11.500Z,47.35
2019-03-29T11:11:11.505Z,47.35
2019-03-29T11:12:11.500Z,47.35
2019-03-29T11:13:13.553Z,47.35
2019-03-29T11:14:11.455Z,47.35
2019-03-29T11:15:11.471Z,47.35
2019-03-29T11:16:11.478Z,47.35
2019-03-29T11:17:11.428Z,47.35
2019-03-29T11:18:11.418Z,47.35
2019-03-29T11:19:11.401Z,47.35
2019-03-29T11:20:11.390Z,47.35
2019-03-29T11:21:11.384Z,47.35
2019-03-29T11:22:11.393Z,47.35
2019-03-29T11:23:11.360Z,47.35
2019-03-29T11:24:11.350Z,47.35
2019-03-29T11:25:11.354Z,47.25
2019-03-29T11:26:11.327Z,47.25
2019-03-29T11:27:11.536Z,47.25
2019-03-29T11:28:11.305Z,47.25
2019-03-29T11:29:11.299Z,47.15
2019-03-29T11:30:11.285Z,47.15
2019-03-29T11:31:11.279Z,47.15
2019-03-29T11:32:11.267Z,47.15
2019-03-29T11:33:11.274Z,47.15
2019-03-29T11:34:11.242Z,47.15
2019-03-29T11:35:11.237Z,47.05
2019-03-29T11:36:11.224Z,47.15
2019-03-29T11:37:11.211Z,47.05
2019-03-29T11:38:11.235Z,47.05
2019-03-29T11:39:11.186Z,47.05
2019-03-29T11:40:11.179Z,47.05
2019-03-29T11:41:11.169Z,47.05
2019-03-29T11:42:11.161Z,47.05
2019-03-29T11:43:11.179Z,47.05
2019-03-29T11:44:11.134Z,47.05
2019-03-29T11:45:11.134Z,47.05
2019-03-29T11:46:11.113Z,47.05
2019-03-29T11:47:11.100Z,47.05
2019-03-29T11:48:11.128Z,47.15
2019-03-29T11:49:11.080Z,47.15
2019-03-29T11:50:11.071Z,47.15
2019-03-29T11:51:19.102Z,47.15
2019-03-29T11:52:12.075Z,47.15
2019-03-29T11:53:11.041Z,47.15
2019-03-29T11:54:11.050Z,47.15
2019-03-29T11:55:11.078Z,47.25
2019-03-29T11:56:11.003Z,47.25
2019-03-29T11:57:10.999Z,47.25
2019-03-29T11:58:10.986Z,47.25
2019-03-29T11:59:10.995Z,47.25
2019-03-29T12:00:10.961Z,47.25
2019-03-29T12:01:10.951Z,47.25
2019-03-29T12:02:10.946Z,47.25
2019-03-29T12:03:10.936Z,47.25
2019-03-29T12:04:11.155Z,47.35
2019-03-29T12:05:10.908Z,47.35
2019-03-29T12:06:10.899Z,47.35
2019-03-29T12:07:10.909Z,47.35
2019-03-29T12:08:10.882Z,47.35
2019-03-29T12:09:10.871Z,47.35
2019-03-29T12:10:10.897Z,47.35
2019-03-29T12:11:10.860Z,47.35
2019-03-29T12:12:10.847Z,47.35
2019-03-29T12:13:10.838Z,47.35
2019-03-29T12:14:10.832Z,47.35
2019-03-29T12:15:10.804Z,47.35
2019-03-29T12:16:10.828Z,47.35
2019-03-29T12:17:10.782Z,47.35
2019-03-29T12:18:10.774Z,47.35
2019-03-29T12:19:10.763Z,47.35
2019-03-29T12:20:10.748Z,47.35
2019-03-29T12:21:10.739Z,47.35
2019-03-29T12:22:10.788Z,47.35
2019-03-29T12:23:11.010Z,47.35
2019-03-29T12:24:10.706Z,47.25
2019-03-29T12:25:10.716Z,47.25
2019-03-29T12:26:10.684Z,47.25
2019-03-29T12:27:10.677Z,47.25
2019-03-29T12:28:10.662Z,47.15
2019-03-29T12:29:10.701Z,47.15
2019-03-29T12:30:10.638Z,47.15
2019-03-29T12:31:10.631Z,47.15
2019-03-29T12:32:10.623Z,47.15
2019-03-29T12:33:10.610Z,47.25
2019-03-29T12:34:10.598Z,47.15
2019-03-29T12:35:10.613Z,47.25
2019-03-29T12:36:10.579Z,47.25
2019-03-29T12:37:10.564Z,47.25
2019-03-29T12:38:10.558Z,47.25
2019-03-29T12:39:10.549Z,47.25
2019-03-29T12:40:10.555Z,47.25
2019-03-29T12:41:10.737Z,47.25
2019-03-29T12:42:10.588Z,47.35
2019-03-29T12:43:12.506Z,47.25
2019-03-29T12:44:10.502Z,47.35
2019-03-29T12:45:10.482Z,47.35
2019-03-29T12:46:10.470Z,47.35
2019-03-29T12:47:10.610Z,47.35
2019-03-29T12:48:10.458Z,47.35
2019-03-29T12:49:10.441Z,47.35
2019-03-29T12:50:10.432Z,47.35
2019-03-29T12:51:10.420Z,47.35
2019-03-29T12:52:10.411Z,47.35